sensor_id;sensor_type;location;lat;lon;timestamp;pressure;altitude;pressure_sealevel;temperature;humidity
58690;BME280;44470;53.206;-6.106;2023-05-12T00:00:34;102367.47;;;16.65;59.44
58690;BME280;44470;53.206;-6.106;2023-05-12T00:03:00;102367.63;;;16.75;59.26
58690;BME280;44470;53.206;-6.106;2023-05-12T00:05:28;102363.09;;;16.69;59.15
58690;BME280;44470;53.206;-6.106;2023-05-12T00:07:54;102367.75;;;16.81;59.33
58690;BME280;44470;53.206;-6.106;2023-05-12T00:10:20;102365.03;;;16.76;59.53
58690;BME280;44470;53.206;-6.106;2023-05-12T00:12:47;102366.59;;;16.66;59.12
58690;BME280;44470;53.206;-6.106;2023-05-12T00:15:13;102375.72;;;16.81;59.20
58690;BME280;44470;53.206;-6.106;2023-05-12T00:17:41;102373.06;;;16.81;58.99
58690;BME280;44470;53.206;-6.106;2023-05-12T00:20:07;102374.06;;;16.86;59.15
58690;BME280;44470;53.206;-6.106;2023-05-12T00:22:34;102373.19;;;16.87;59.40
58690;BME280;44470;53.206;-6.106;2023-05-12T00:25:03;102379.38;;;16.84;59.35
58690;BME280;44470;53.206;-6.106;2023-05-12T00:27:31;102377.47;;;16.79;59.53
58690;BME280;44470;53.206;-6.106;2023-05-12T01:07:48;102402.19;;;16.73;60.56
58690;BME280;44470;53.206;-6.106;2023-05-12T01:10:20;102413.81;;;16.80;60.11
58690;BME280;44470;53.206;-6.106;2023-05-12T01:12:46;102399.53;;;16.75;60.00
58690;BME280;44470;53.206;-6.106;2023-05-12T01:15:11;102400.47;;;16.75;60.22
58690;BME280;44470;53.206;-6.106;2023-05-12T01:17:41;102401.22;;;16.69;60.17
58690;BME280;44470;53.206;-6.106;2023-05-12T01:20:08;102401.16;;;16.68;60.54
58690;BME280;44470;53.206;-6.106;2023-05-12T01:22:36;102406.38;;;16.62;60.20
58690;BME280;44470;53.206;-6.106;2023-05-12T01:25:09;102410.00;;;16.65;60.09
58690;BME280;44470;53.206;-6.106;2023-05-12T01:27:38;102415.50;;;16.75;59.77
58690;BME280;44470;53.206;-6.106;2023-05-12T01:30:05;102402.75;;;16.58;60.04
58690;BME280;44470;53.206;-6.106;2023-05-12T01:32:34;102401.22;;;16.69;59.67
58690;BME280;44470;53.206;-6.106;2023-05-12T01:35:02;102410.31;;;16.81;59.56
58690;BME280;44470;53.206;-6.106;2023-05-12T01:37:31;102406.69;;;16.77;59.63
58690;BME280;44470;53.206;-6.106;2023-05-12T01:39:59;102420.00;;;16.77;59.70
58690;BME280;44470;53.206;-6.106;2023-05-12T01:42:27;102410.34;;;16.82;59.54
58690;BME280;44470;53.206;-6.106;2023-05-12T01:44:54;102412.84;;;16.75;59.74
58690;BME280;44470;53.206;-6.106;2023-05-12T01:47:22;102411.91;;;16.73;59.74
58690;BME280;44470;53.206;-6.106;2023-05-12T02:20:12;102434.00;;;16.70;59.61
58690;BME280;44470;53.206;-6.106;2023-05-12T02:22:38;102442.06;;;16.73;59.36
58690;BME280;44470;53.206;-6.106;2023-05-12T02:25:04;102446.47;;;16.71;59.31
58690;BME280;44470;53.206;-6.106;2023-05-12T02:27:29;102443.69;;;16.66;59.11
58690;BME280;44470;53.206;-6.106;2023-05-12T02:29:57;102448.16;;;16.67;58.98
58690;BME280;44470;53.206;-6.106;2023-05-12T02:32:23;102446.59;;;16.77;59.36
58690;BME280;44470;53.206;-6.106;2023-05-12T02:34:54;102450.88;;;16.70;59.55
58690;BME280;44470;53.206;-6.106;2023-05-12T02:37:19;102450.50;;;16.52;59.42
58690;BME280;44470;53.206;-6.106;2023-05-12T02:39:45;102466.69;;;16.64;59.74
58690;BME280;44470;53.206;-6.106;2023-05-12T02:42:10;102459.97;;;16.82;58.97
58690;BME280;44470;53.206;-6.106;2023-05-12T02:44:36;102467.06;;;16.83;59.10
58690;BME280;44470;53.206;-6.106;2023-05-12T02:47:01;102467.13;;;16.86;58.89
58690;BME280;44470;53.206;-6.106;2023-05-12T02:49:27;102468.00;;;16.83;58.94
58690;BME280;44470;53.206;-6.106;2023-05-12T02:51:53;102462.53;;;16.77;58.95
58690;BME280;44470;53.206;-6.106;2023-05-12T02:54:19;102464.03;;;16.64;58.81
58690;BME280;44470;53.206;-6.106;2023-05-12T02:56:45;102466.56;;;16.58;59.49
58690;BME280;44470;53.206;-6.106;2023-05-12T02:59:10;102471.22;;;16.68;58.50
58690;BME280;44470;53.206;-6.106;2023-05-12T03:01:36;102474.75;;;16.69;59.16
58690;BME280;44470;53.206;-6.106;2023-05-12T03:04:02;102477.47;;;16.70;58.80
58690;BME280;44470;53.206;-6.106;2023-05-12T03:06:28;102486.03;;;16.57;59.31
58690;BME280;44470;53.206;-6.106;2023-05-12T03:08:54;102488.72;;;16.59;59.49
58690;BME280;44470;53.206;-6.106;2023-05-12T03:11:21;102482.59;;;16.63;59.44
58690;BME280;44470;53.206;-6.106;2023-05-12T03:13:46;102456.69;;;16.52;59.09
58690;BME280;44470;53.206;-6.106;2023-05-12T03:16:12;102477.41;;;16.67;58.90
58690;BME280;44470;53.206;-6.106;2023-05-12T03:18:38;102487.97;;;16.64;58.59
58690;BME280;44470;53.206;-6.106;2023-05-12T03:21:04;102483.63;;;16.69;58.79
58690;BME280;44470;53.206;-6.106;2023-05-12T03:23:30;102487.19;;;16.70;58.69
58690;BME280;44470;53.206;-6.106;2023-05-12T03:25:56;102491.56;;;16.66;58.51
58690;BME280;44470;53.206;-6.106;2023-05-12T03:28:21;102497.75;;;16.67;58.79
58690;BME280;44470;53.206;-6.106;2023-05-12T03:30:50;102492.34;;;16.62;58.64
58690;BME280;44470;53.206;-6.106;2023-05-12T03:33:16;102508.50;;;16.71;58.67
58690;BME280;44470;53.206;-6.106;2023-05-12T03:35:42;102498.53;;;16.61;58.91
58690;BME280;44470;53.206;-6.106;2023-05-12T03:38:07;102501.25;;;16.64;58.96
58690;BME280;44470;53.206;-6.106;2023-05-12T03:40:33;102504.78;;;16.63;59.01
58690;BME280;44470;53.206;-6.106;2023-05-12T03:42:58;102495.75;;;16.56;58.77
58690;BME280;44470;53.206;-6.106;2023-05-12T03:45:24;102497.47;;;16.53;59.21
58690;BME280;44470;53.206;-6.106;2023-05-12T03:47:49;102496.59;;;16.54;59.19
58690;BME280;44470;53.206;-6.106;2023-05-12T03:50:15;102494.06;;;16.60;59.15
58690;BME280;44470;53.206;-6.106;2023-05-12T03:52:40;102501.19;;;16.61;59.20
58690;BME280;44470;53.206;-6.106;2023-05-12T03:55:06;102497.72;;;16.65;58.50
58690;BME280;44470;53.206;-6.106;2023-05-12T03:57:32;102485.06;;;16.53;58.77
58690;BME280;44470;53.206;-6.106;2023-05-12T04:00:01;102501.22;;;16.63;58.97
58690;BME280;44470;53.206;-6.106;2023-05-12T04:02:27;102502.00;;;16.59;58.84
58690;BME280;44470;53.206;-6.106;2023-05-12T04:04:52;102499.53;;;16.66;59.02
58690;BME280;44470;53.206;-6.106;2023-05-12T04:07:18;102520.69;;;16.62;58.56
58690;BME280;44470;53.206;-6.106;2023-05-12T04:09:45;102511.69;;;16.56;59.00
58690;BME280;44470;53.206;-6.106;2023-05-12T04:12:11;102504.53;;;16.52;59.33
58690;BME280;44470;53.206;-6.106;2023-05-12T04:14:36;102512.47;;;16.51;59.33
58690;BME280;44470;53.206;-6.106;2023-05-12T04:17:03;102504.47;;;16.49;59.35
58690;BME280;44470;53.206;-6.106;2023-05-12T04:19:29;102515.94;;;16.47;59.54
58690;BME280;44470;53.206;-6.106;2023-05-12T04:21:54;102519.47;;;16.46;59.40
58690;BME280;44470;53.206;-6.106;2023-05-12T04:24:20;102516.00;;;16.50;59.29
58690;BME280;44470;53.206;-6.106;2023-05-12T04:26:45;102533.81;;;16.54;59.21
58690;BME280;44470;53.206;-6.106;2023-05-12T04:29:11;102533.81;;;16.54;59.15
58690;BME280;44470;53.206;-6.106;2023-05-12T04:31:37;102534.50;;;16.45;59.13
58690;BME280;44470;53.206;-6.106;2023-05-12T04:34:03;102540.84;;;16.52;58.83
58690;BME280;44470;53.206;-6.106;2023-05-12T04:36:30;102535.53;;;16.52;58.85
58690;BME280;44470;53.206;-6.106;2023-05-12T04:38:56;102540.53;;;16.39;59.12
58690;BME280;44470;53.206;-6.106;2023-05-12T04:41:22;102533.44;;;16.38;58.96
58690;BME280;44470;53.206;-6.106;2023-05-12T04:43:47;102546.03;;;16.46;59.24
58690;BME280;44470;53.206;-6.106;2023-05-12T04:46:13;102551.50;;;16.53;59.00
58690;BME280;44470;53.206;-6.106;2023-05-12T04:48:38;102555.81;;;16.48;59.04
58690;BME280;44470;53.206;-6.106;2023-05-12T04:51:06;102556.72;;;16.49;58.91
58690;BME280;44470;53.206;-6.106;2023-05-12T04:53:32;102558.53;;;16.50;59.17
58690;BME280;44470;53.206;-6.106;2023-05-12T04:55:59;102554.00;;;16.46;59.14
58690;BME280;44470;53.206;-6.106;2023-05-12T04:58:27;102553.34;;;16.56;59.28
58690;BME280;44470;53.206;-6.106;2023-05-12T05:00:53;102549.63;;;16.48;59.11
58690;BME280;44470;53.206;-6.106;2023-05-12T05:03:18;102563.91;;;16.53;58.83
58690;BME280;44470;53.206;-6.106;2023-05-12T05:05:44;102567.38;;;16.49;59.15
58690;BME280;44470;53.206;-6.106;2023-05-12T05:08:10;102571.91;;;16.54;59.21
58690;BME280;44470;53.206;-6.106;2023-05-12T05:10:36;102560.94;;;16.40;59.39
58690;BME280;44470;53.206;-6.106;2023-05-12T05:13:01;102555.59;;;16.39;59.45
58690;BME280;44470;53.206;-6.106;2023-05-12T05:15:27;102573.75;;;16.57;59.37
58690;BME280;44470;53.206;-6.106;2023-05-12T05:17:53;102580.81;;;16.55;59.29
58690;BME280;44470;53.206;-6.106;2023-05-12T05:20:20;102585.09;;;16.50;59.41
58690;BME280;44470;53.206;-6.106;2023-05-12T05:22:46;102592.06;;;16.45;59.76
58690;BME280;44470;53.206;-6.106;2023-05-12T05:25:13;102579.19;;;16.25;60.26
58690;BME280;44470;53.206;-6.106;2023-05-12T05:27:39;102600.63;;;16.33;59.98
58690;BME280;44470;53.206;-6.106;2023-05-12T05:30:06;102609.72;;;16.42;59.74
58690;BME280;44470;53.206;-6.106;2023-05-12T05:32:34;102593.94;;;16.49;59.68
58690;BME280;44470;53.206;-6.106;2023-05-12T05:35:02;102603.63;;;16.47;60.06
58690;BME280;44470;53.206;-6.106;2023-05-12T05:37:30;102600.06;;;16.45;59.95
58690;BME280;44470;53.206;-6.106;2023-05-12T05:39:57;102607.38;;;16.55;59.68
58690;BME280;44470;53.206;-6.106;2023-05-12T05:42:24;102615.50;;;16.61;59.63
58690;BME280;44470;53.206;-6.106;2023-05-12T05:44:53;102619.97;;;16.64;59.39
58690;BME280;44470;53.206;-6.106;2023-05-12T05:47:20;102608.38;;;16.60;59.58
58690;BME280;44470;53.206;-6.106;2023-05-12T05:49:47;102620.09;;;16.68;59.44
58690;BME280;44470;53.206;-6.106;2023-05-12T05:52:14;102615.44;;;16.60;59.54
58690;BME280;44470;53.206;-6.106;2023-05-12T05:54:39;102622.81;;;16.71;59.49
58690;BME280;44470;53.206;-6.106;2023-05-12T05:57:05;102629.72;;;16.63;60.03
58690;BME280;44470;53.206;-6.106;2023-05-12T05:59:31;102628.16;;;16.71;60.00
58690;BME280;44470;53.206;-6.106;2023-05-12T06:01:57;102633.50;;;16.73;59.50
58690;BME280;44470;53.206;-6.106;2023-05-12T06:04:23;102641.38;;;16.70;59.94
58690;BME280;44470;53.206;-6.106;2023-05-12T06:06:48;102647.84;;;16.80;59.77
58690;BME280;44470;53.206;-6.106;2023-05-12T06:09:14;102658.41;;;16.77;59.92
58690;BME280;44470;53.206;-6.106;2023-05-12T06:11:40;102665.50;;;16.78;60.04
58690;BME280;44470;53.206;-6.106;2023-05-12T06:14:05;102642.50;;;16.78;60.10
58690;BME280;44470;53.206;-6.106;2023-05-12T06:16:31;102659.59;;;16.90;59.89
58690;BME280;44470;53.206;-6.106;2023-05-12T06:18:56;102648.91;;;16.88;59.95
58690;BME280;44470;53.206;-6.106;2023-05-12T06:21:22;102673.78;;;16.90;59.98
58690;BME280;44470;53.206;-6.106;2023-05-12T06:23:48;102672.19;;;16.97;59.95
58690;BME280;44470;53.206;-6.106;2023-05-12T06:26:13;102674.72;;;16.92;59.96
58690;BME280;44470;53.206;-6.106;2023-05-12T06:28:39;102672.28;;;17.00;59.92
58690;BME280;44470;53.206;-6.106;2023-05-12T06:31:07;102668.69;;;16.98;59.94
58690;BME280;44470;53.206;-6.106;2023-05-12T06:33:33;102658.81;;;16.95;59.83
58690;BME280;44470;53.206;-6.106;2023-05-12T06:35:59;102656.88;;;16.88;59.90
58690;BME280;44470;53.206;-6.106;2023-05-12T06:38:24;102678.31;;;16.94;60.13
58690;BME280;44470;53.206;-6.106;2023-05-12T06:40:50;102673.69;;;16.85;60.84
58690;BME280;44470;53.206;-6.106;2023-05-12T06:43:15;102685.22;;;16.86;60.75
58690;BME280;44470;53.206;-6.106;2023-05-12T06:45:43;102683.47;;;16.88;60.71
58690;BME280;44470;53.206;-6.106;2023-05-12T06:48:09;102680.59;;;16.77;61.10
58690;BME280;44470;53.206;-6.106;2023-05-12T06:50:35;102690.59;;;16.89;60.44
58690;BME280;44470;53.206;-6.106;2023-05-12T06:53:00;102700.38;;;16.90;60.58
58690;BME280;44470;53.206;-6.106;2023-05-12T06:55:26;102691.53;;;16.91;60.91
58690;BME280;44470;53.206;-6.106;2023-05-12T06:57:52;102694.19;;;16.91;60.47
58690;BME280;44470;53.206;-6.106;2023-05-12T07:00:22;102714.53;;;16.88;61.11
58690;BME280;44470;53.206;-6.106;2023-05-12T07:02:48;102703.09;;;16.93;60.82
58690;BME280;44470;53.206;-6.106;2023-05-12T07:05:13;102695.03;;;16.89;61.08
58690;BME280;44470;53.206;-6.106;2023-05-12T07:07:39;102704.53;;;16.79;61.66
58690;BME280;44470;53.206;-6.106;2023-05-12T07:10:05;102695.34;;;16.66;61.75
58690;BME280;44470;53.206;-6.106;2023-05-12T07:12:31;102698.50;;;16.84;61.13
58690;BME280;44470;53.206;-6.106;2023-05-12T07:14:57;102708.13;;;16.81;61.39
58690;BME280;44470;53.206;-6.106;2023-05-12T07:17:22;102710.16;;;16.91;61.44
58690;BME280;44470;53.206;-6.106;2023-05-12T07:19:48;102707.50;;;16.91;61.12
58690;BME280;44470;53.206;-6.106;2023-05-12T07:22:13;102713.81;;;16.95;61.21
58690;BME280;44470;53.206;-6.106;2023-05-12T07:24:39;102715.47;;;16.91;61.32
58690;BME280;44470;53.206;-6.106;2023-05-12T07:27:04;102719.00;;;16.90;61.41
58690;BME280;44470;53.206;-6.106;2023-05-12T07:29:30;102721.09;;;17.01;61.08
58690;BME280;44470;53.206;-6.106;2023-05-12T07:31:55;102730.69;;;16.97;61.56
58690;BME280;44470;53.206;-6.106;2023-05-12T07:34:21;102725.47;;;17.00;61.36
58690;BME280;44470;53.206;-6.106;2023-05-12T07:36:46;102727.97;;;16.95;61.38
58690;BME280;44470;53.206;-6.106;2023-05-12T07:39:12;102732.66;;;17.03;61.11
58690;BME280;44470;53.206;-6.106;2023-05-12T07:41:39;102736.34;;;17.09;60.80
58690;BME280;44470;53.206;-6.106;2023-05-12T07:44:05;102729.22;;;17.07;60.87
58690;BME280;44470;53.206;-6.106;2023-05-12T07:46:31;102737.91;;;17.01;61.29
58690;BME280;44470;53.206;-6.106;2023-05-12T07:48:57;102724.56;;;16.98;61.30
58690;BME280;44470;53.206;-6.106;2023-05-12T07:51:22;102735.00;;;16.92;61.75
58690;BME280;44470;53.206;-6.106;2023-05-12T07:53:48;102744.25;;;17.06;61.75
58690;BME280;44470;53.206;-6.106;2023-05-12T07:56:13;102737.91;;;17.01;61.70
58690;BME280;44470;53.206;-6.106;2023-05-12T07:58:39;102733.47;;;17.00;61.71
58690;BME280;44470;53.206;-6.106;2023-05-12T08:01:04;102736.25;;;17.05;61.83
58690;BME280;44470;53.206;-6.106;2023-05-12T08:03:32;102740.19;;;16.87;62.53
58690;BME280;44470;53.206;-6.106;2023-05-12T08:05:57;102740.56;;;16.99;62.15
58690;BME280;44470;53.206;-6.106;2023-05-12T08:08:23;102736.97;;;16.97;62.25
58690;BME280;44470;53.206;-6.106;2023-05-12T08:10:48;102744.66;;;16.88;62.66
58690;BME280;44470;53.206;-6.106;2023-05-12T08:13:14;102739.25;;;16.83;63.00
58690;BME280;44470;53.206;-6.106;2023-05-12T08:15:39;102744.09;;;16.98;62.42
58690;BME280;44470;53.206;-6.106;2023-05-12T08:18:05;102746.50;;;16.91;62.58
58690;BME280;44470;53.206;-6.106;2023-05-12T08:20:30;102734.63;;;16.76;62.88
58690;BME280;44470;53.206;-6.106;2023-05-12T08:22:56;102744.50;;;16.82;62.87
58690;BME280;44470;53.206;-6.106;2023-05-12T08:25:22;102751.53;;;16.78;62.73
58690;BME280;44470;53.206;-6.106;2023-05-12T08:27:47;102754.13;;;16.77;62.83
58690;BME280;44470;53.206;-6.106;2023-05-12T08:30:13;102759.59;;;16.83;62.50
58690;BME280;44470;53.206;-6.106;2023-05-12T08:32:39;102751.53;;;16.78;62.57
58690;BME280;44470;53.206;-6.106;2023-05-12T08:35:04;102776.25;;;16.76;62.86
58690;BME280;44470;53.206;-6.106;2023-05-12T08:37:30;102757.56;;;16.73;62.99
58690;BME280;44470;53.206;-6.106;2023-05-12T08:39:56;102767.44;;;16.77;63.07
58690;BME280;44470;53.206;-6.106;2023-05-12T08:42:43;102768.44;;;16.82;63.02
58690;BME280;44470;53.206;-6.106;2023-05-12T08:45:10;102782.53;;;16.78;63.17
58690;BME280;44470;53.206;-6.106;2023-05-12T08:47:36;102782.44;;;16.75;63.17
58690;BME280;44470;53.206;-6.106;2023-05-12T08:50:03;102770.84;;;16.71;63.16
58690;BME280;44470;53.206;-6.106;2023-05-12T08:52:31;102792.47;;;16.85;62.94
58690;BME280;44470;53.206;-6.106;2023-05-12T08:54:57;102788.84;;;16.81;63.08
58690;BME280;44470;53.206;-6.106;2023-05-12T08:57:23;102797.78;;;16.85;63.15
58690;BME280;44470;53.206;-6.106;2023-05-12T08:59:54;102789.72;;;16.82;63.13
58690;BME280;44470;53.206;-6.106;2023-05-12T09:02:23;102790.28;;;16.70;63.29
58690;BME280;44470;53.206;-6.106;2023-05-12T09:04:50;102803.00;;;16.80;63.16
58690;BME280;44470;53.206;-6.106;2023-05-12T09:07:20;102802.91;;;16.77;62.92
58690;BME280;44470;53.206;-6.106;2023-05-12T09:09:47;102814.56;;;16.82;62.94
58690;BME280;44470;53.206;-6.106;2023-05-12T09:12:15;102813.56;;;16.79;63.02
58690;BME280;44470;53.206;-6.106;2023-05-12T09:14:44;102801.69;;;16.64;62.85
58690;BME280;44470;53.206;-6.106;2023-05-12T09:17:10;102821.16;;;16.63;63.05
58690;BME280;44470;53.206;-6.106;2023-05-12T09:19:36;102817.88;;;16.74;62.79
58690;BME280;44470;53.206;-6.106;2023-05-12T09:22:02;102806.06;;;16.64;62.80
58690;BME280;44470;53.206;-6.106;2023-05-12T09:24:37;102810.88;;;16.77;62.41
58690;BME280;44470;53.206;-6.106;2023-05-12T09:27:03;102826.72;;;16.73;62.53
58690;BME280;44470;53.206;-6.106;2023-05-12T09:29:30;102821.22;;;16.66;62.70
58690;BME280;44470;53.206;-6.106;2023-05-12T09:32:01;102826.63;;;16.69;62.63
58690;BME280;44470;53.206;-6.106;2023-05-12T09:34:28;102813.94;;;16.59;62.51
58690;BME280;44470;53.206;-6.106;2023-05-12T09:36:59;102826.22;;;16.54;62.98
58690;BME280;44470;53.206;-6.106;2023-05-12T09:39:25;102837.97;;;16.62;62.43
58690;BME280;44470;53.206;-6.106;2023-05-12T09:41:51;102835.31;;;16.62;62.38
58690;BME280;44470;53.206;-6.106;2023-05-12T09:44:17;102832.25;;;16.48;62.88
58690;BME280;44470;53.206;-6.106;2023-05-12T09:46:44;102846.91;;;16.66;62.50
58690;BME280;44470;53.206;-6.106;2023-05-12T09:49:10;102847.72;;;16.63;62.38
58690;BME280;44470;53.206;-6.106;2023-05-12T09:51:37;102839.59;;;16.57;62.59
58690;BME280;44470;53.206;-6.106;2023-05-12T09:54:04;102842.34;;;16.60;62.20
58690;BME280;44470;53.206;-6.106;2023-05-12T09:56:30;102843.88;;;16.52;62.69
58690;BME280;44470;53.206;-6.106;2023-05-12T09:58:56;102840.63;;;16.62;62.36
58690;BME280;44470;53.206;-6.106;2023-05-12T10:01:23;102850.81;;;16.79;61.97
58690;BME280;44470;53.206;-6.106;2023-05-12T10:03:54;102848.97;;;16.76;61.89
58690;BME280;44470;53.206;-6.106;2023-05-12T10:06:31;102839.31;;;16.80;61.57
58690;BME280;44470;53.206;-6.106;2023-05-12T10:09:18;102855.19;;;16.77;61.90
58690;BME280;44470;53.206;-6.106;2023-05-12T10:11:46;102853.31;;;16.73;61.96
58690;BME280;44470;53.206;-6.106;2023-05-12T10:14:13;102855.72;;;16.63;62.09
58690;BME280;44470;53.206;-6.106;2023-05-12T10:16:39;102859.06;;;16.56;62.11
58690;BME280;44470;53.206;-6.106;2023-05-12T10:19:05;102867.13;;;16.59;62.04
58690;BME280;44470;53.206;-6.106;2023-05-12T10:21:31;102857.03;;;16.47;62.04
58690;BME280;44470;53.206;-6.106;2023-05-12T10:23:58;102873.31;;;16.60;62.09
58690;BME280;44470;53.206;-6.106;2023-05-12T10:26:23;102871.09;;;16.43;62.35
58690;BME280;44470;53.206;-6.106;2023-05-12T10:28:50;102868.84;;;16.57;61.93
58690;BME280;44470;53.206;-6.106;2023-05-12T10:31:17;102866.19;;;16.57;61.87
58690;BME280;44470;53.206;-6.106;2023-05-12T10:33:55;102858.97;;;16.53;61.92
58690;BME280;44470;53.206;-6.106;2023-05-12T10:36:21;102855.38;;;16.51;61.61
58690;BME280;44470;53.206;-6.106;2023-05-12T10:38:47;102863.53;;;16.57;61.75
58690;BME280;44470;53.206;-6.106;2023-05-12T10:41:16;102867.63;;;16.46;61.79
58690;BME280;44470;53.206;-6.106;2023-05-12T10:43:52;102869.69;;;16.56;61.64
58690;BME280;44470;53.206;-6.106;2023-05-12T10:46:19;102857.19;;;16.52;61.32
58690;BME280;44470;53.206;-6.106;2023-05-12T10:49:02;102874.78;;;16.48;61.82
58690;BME280;44470;53.206;-6.106;2023-05-12T10:54:01;102865.44;;;16.63;61.88
58690;BME280;44470;53.206;-6.106;2023-05-12T10:59:12;102854.78;;;16.61;61.20
58690;BME280;44470;53.206;-6.106;2023-05-12T11:04:40;102875.16;;;16.94;60.49
58690;BME280;44470;53.206;-6.106;2023-05-12T11:07:07;102871.47;;;16.89;60.09
58690;BME280;44470;53.206;-6.106;2023-05-12T11:09:35;102873.03;;;16.81;60.00
58690;BME280;44470;53.206;-6.106;2023-05-12T11:12:01;102874.66;;;16.76;60.44
58690;BME280;44470;53.206;-6.106;2023-05-12T11:14:27;102869.25;;;16.73;60.21
58690;BME280;44470;53.206;-6.106;2023-05-12T11:16:52;102872.47;;;16.61;61.08
58690;BME280;44470;53.206;-6.106;2023-05-12T11:19:26;102888.38;;;16.59;60.84
58690;BME280;44470;53.206;-6.106;2023-05-12T11:21:53;102883.88;;;16.56;60.79
58690;BME280;44470;53.206;-6.106;2023-05-12T11:24:20;102890.28;;;16.63;60.50
58690;BME280;44470;53.206;-6.106;2023-05-12T11:26:46;102881.81;;;16.46;60.85
58690;BME280;44470;53.206;-6.106;2023-05-12T11:29:17;102892.63;;;16.52;60.86
58690;BME280;44470;53.206;-6.106;2023-05-12T11:31:46;102881.03;;;16.50;60.90
58690;BME280;44470;53.206;-6.106;2023-05-12T11:34:12;102889.09;;;16.53;60.95
58690;BME280;44470;53.206;-6.106;2023-05-12T11:36:39;102888.22;;;16.53;60.71
58690;BME280;44470;53.206;-6.106;2023-05-12T11:39:06;102898.94;;;16.56;60.53
58690;BME280;44470;53.206;-6.106;2023-05-12T11:41:38;102891.78;;;16.85;60.30
58690;BME280;44470;53.206;-6.106;2023-05-12T11:47:11;102894.56;;;17.22;60.44
58690;BME280;44470;53.206;-6.106;2023-05-12T11:49:50;102893.03;;;17.32;61.56
58690;BME280;44470;53.206;-6.106;2023-05-12T11:52:18;102902.22;;;17.45;62.09
58690;BME280;44470;53.206;-6.106;2023-05-12T11:55:02;102903.31;;;17.53;61.61
58690;BME280;44470;53.206;-6.106;2023-05-12T11:57:31;102905.28;;;17.61;61.60
58690;BME280;44470;53.206;-6.106;2023-05-12T12:00:07;102908.09;;;17.67;61.90
58690;BME280;44470;53.206;-6.106;2023-05-12T12:02:34;102904.69;;;17.74;62.18
58690;BME280;44470;53.206;-6.106;2023-05-12T12:05:01;102898.50;;;17.75;61.91
58690;BME280;44470;53.206;-6.106;2023-05-12T12:07:29;102907.56;;;17.83;61.85
58690;BME280;44470;53.206;-6.106;2023-05-12T12:09:55;102900.59;;;17.89;61.44
58690;BME280;44470;53.206;-6.106;2023-05-12T12:12:21;102902.44;;;17.91;61.37
58690;BME280;44470;53.206;-6.106;2023-05-12T12:14:46;102904.25;;;17.94;61.01
58690;BME280;44470;53.206;-6.106;2023-05-12T12:17:12;102904.31;;;17.97;61.05
58690;BME280;44470;53.206;-6.106;2023-05-12T12:19:37;102902.59;;;17.99;60.86
58690;BME280;44470;53.206;-6.106;2023-05-12T12:22:03;102908.94;;;18.03;60.73
58690;BME280;44470;53.206;-6.106;2023-05-12T12:24:29;102916.06;;;18.04;61.02
58690;BME280;44470;53.206;-6.106;2023-05-12T12:26:55;102919.59;;;18.03;60.53
58690;BME280;44470;53.206;-6.106;2023-05-12T12:29:20;102907.25;;;18.06;59.71
58690;BME280;44470;53.206;-6.106;2023-05-12T12:31:48;102913.47;;;18.05;60.24
58690;BME280;44470;53.206;-6.106;2023-05-12T12:34:13;102918.84;;;18.08;60.17
58690;BME280;44470;53.206;-6.106;2023-05-12T12:36:39;102924.25;;;18.11;60.19
58690;BME280;44470;53.206;-6.106;2023-05-12T12:39:05;102909.94;;;18.08;60.16
58690;BME280;44470;53.206;-6.106;2023-05-12T12:41:31;102921.66;;;18.16;60.27
58690;BME280;44470;53.206;-6.106;2023-05-12T12:43:56;102921.66;;;18.16;60.08
58690;BME280;44470;53.206;-6.106;2023-05-12T12:46:22;102927.97;;;18.20;60.17
58690;BME280;44470;53.206;-6.106;2023-05-12T12:48:48;102915.47;;;18.15;60.13
58690;BME280;44470;53.206;-6.106;2023-05-12T12:51:13;102924.44;;;18.21;60.10
58690;BME280;44470;53.206;-6.106;2023-05-12T12:53:39;102933.38;;;18.23;59.81
58690;BME280;44470;53.206;-6.106;2023-05-12T12:56:07;102931.66;;;18.25;59.93
58690;BME280;44470;53.206;-6.106;2023-05-12T12:58:33;102930.66;;;18.21;59.93
58690;BME280;44470;53.206;-6.106;2023-05-12T13:00:58;102938.78;;;18.26;59.80
58690;BME280;44470;53.206;-6.106;2023-05-12T13:03:24;102929.91;;;18.27;59.92
58690;BME280;44470;53.206;-6.106;2023-05-12T13:05:50;102927.19;;;18.25;59.72
58690;BME280;44470;53.206;-6.106;2023-05-12T13:08:15;102937.13;;;18.31;59.72
58690;BME280;44470;53.206;-6.106;2023-05-12T13:10:44;102932.69;;;18.32;59.74
58690;BME280;44470;53.206;-6.106;2023-05-12T13:13:10;102927.38;;;18.32;59.78
58690;BME280;44470;53.206;-6.106;2023-05-12T13:15:39;102920.25;;;18.30;59.89
58690;BME280;44470;53.206;-6.106;2023-05-12T13:18:06;102934.50;;;18.34;59.61
58690;BME280;44470;53.206;-6.106;2023-05-12T13:20:31;102931.03;;;18.37;59.71
58690;BME280;44470;53.206;-6.106;2023-05-12T13:22:57;102924.72;;;18.33;59.53
58690;BME280;44470;53.206;-6.106;2023-05-12T13:25:23;102930.13;;;18.36;59.61
58690;BME280;44470;53.206;-6.106;2023-05-12T13:27:48;102927.50;;;18.38;59.60
58690;BME280;44470;53.206;-6.106;2023-05-12T13:30:14;102933.72;;;18.38;59.65
58690;BME280;44470;53.206;-6.106;2023-05-12T13:32:39;102933.72;;;18.38;59.63
58690;BME280;44470;53.206;-6.106;2023-05-12T13:35:05;102923.97;;;18.39;59.55
58690;BME280;44470;53.206;-6.106;2023-05-12T13:37:31;102932.84;;;18.39;59.55
58690;BME280;44470;53.206;-6.106;2023-05-12T13:39:57;102917.72;;;18.38;59.38
58690;BME280;44470;53.206;-6.106;2023-05-12T13:42:22;102915.97;;;18.40;59.46
58690;BME280;44470;53.206;-6.106;2023-05-12T13:44:48;102916.03;;;18.43;59.45
58690;BME280;44470;53.206;-6.106;2023-05-12T13:47:14;102926.72;;;18.43;59.45
58690;BME280;44470;53.206;-6.106;2023-05-12T13:49:39;102919.50;;;18.39;59.37
58690;BME280;44470;53.206;-6.106;2023-05-12T13:52:05;102924.03;;;18.42;59.35
58690;BME280;44470;53.206;-6.106;2023-05-12T13:54:31;102924.09;;;18.47;59.36
58690;BME280;44470;53.206;-6.106;2023-05-12T13:56:57;102928.56;;;18.48;59.37